Dornsife, PA

12:13 PM EST on December 11, 2019 (GMT -0500)
Herndon, PA | | Change Station

Elev 656 ft 40.67 °N, 76.80 °W | Updated 1 second ago

Clear
Clear
33.6 °F
Feels Like 27 °F
N
7
Wind Variable Wind from WSW
Gusts 18.0 mph

Today
High -- | Low -- °F
--% Chance of Precip.
Yesterday
High -- | Low -- °F
Precip. -- in
Pressure 30.34 in
Visibility 10.0 miles
Clouds Scattered Clouds 4700 ft
Windchill 27 °F
Dew Point 18 °F
Humidity 54%
Rainfall 0.00 in
Snow Depth Not available.
7:20 AM 4:39 PM
Full, 100% visible
METAR KSEG 111553Z AUTO 26008G15KT 220V280 10SM SCT047 01/M09 A3033 RMK AO2 SLP273 T00111089
Pressure 30.34 in
Visibility 10.0 miles
Clouds Scattered Clouds 4700 ft
Windchill 27 °F
Dew Point 18 °F
Humidity 54%
Rainfall 0.00 in
Snow Depth Not available.
7:20 AM 4:39 PM
Full, 100% visible
METAR KSEG 111553Z AUTO 26008G15KT 220V280 10SM SCT047 01/M09 A3033 RMK AO2 SLP273 T00111089

Get Severe Weather Alerts

Thanks for signing up!

Be on the lookout for a verification email in your inbox.

You'll start receiving the daily forecast at 6 AM.

×

10-Day Weather Forecast

Almanac

Astronomy

Dec. 11, 2019 Rise Set
Actual Time
Civil Twilight
Nautical Twilight
Astronomical Twilight
Moon
Length of Visible Light
Length of Day
Tomorrow will be .
, % of the Moon is Illuminated

Today's Extremes

State Highs State Lows

Community

WunderPhotos

Category 6

Welcome to Category 6. This is the collective home for Weather Underground's featured writeups by Dr. Jeff Masters (right), Bob Henson (left), Chris Burt, and other regular contributors.

Nearby

Air Quality

  Air Quality AQ Index Pollutant
Not available.

Snow Depth

Station Depth Elevation

Earthquake Activity

City Distance Mag. Time & Date
Minimum magnitude displayed is 2.5.

Coastal Water Temperatures

Place Temperature

Stations

Nearby Weather Stations

Station Location Temp. Windchill Dew Point Humidity Wind Precip. Elev Updated Type
                   

Watches & Warnings

There are currently no watches in effect.